createdAt,value
2022-11-20T15:12:59.407Z,12.63
2022-11-20T15:17:42.554Z,10.83
2022-11-20T15:22:28.207Z,6.5
2022-11-20T15:27:11.607Z,4.27
2022-11-20T15:31:54.886Z,2.96
2022-11-20T15:36:38.275Z,2.33
2022-11-20T15:41:24.291Z,1.8
2022-11-20T15:46:11.828Z,1.6
2022-11-20T15:50:58.000Z,1.23
2022-11-20T15:55:41.082Z,1
2022-11-20T16:00:24.149Z,0.8
2022-11-20T16:05:07.291Z,0.51
2022-11-20T16:09:58.362Z,0.37
2022-11-20T16:14:46.246Z,0.29
2022-11-20T16:19:33.370Z,0.21
2022-11-20T16:24:24.443Z,0.09
2022-11-20T16:29:19.462Z,-0.01
2022-11-20T16:34:11.430Z,-0.04
2022-11-20T16:38:55.157Z,-0.05
2022-11-20T16:43:41.468Z,-0.11
2022-11-20T16:48:24.628Z,-0.19
2022-11-20T16:53:07.931Z,-0.25
2022-11-20T16:57:51.274Z,-0.37
2022-11-20T17:02:34.458Z,-0.46
2022-11-20T17:07:17.644Z,-0.52
2022-11-20T17:12:00.878Z,-0.61
2022-11-20T17:16:43.974Z,-0.67
2022-11-20T17:21:27.144Z,-0.73
2022-11-20T17:26:10.416Z,-0.8
2022-11-20T17:30:53.565Z,-0.87
2022-11-20T17:35:38.530Z,-0.98
2022-11-20T17:40:27.080Z,-1.02
2022-11-20T17:45:10.482Z,-1.08
2022-11-20T17:49:53.691Z,-1.14
2022-11-20T17:54:36.779Z,-1.14
2022-11-20T17:59:19.845Z,-1.17
2022-11-20T18:04:02.904Z,-1.26
2022-11-20T18:08:45.946Z,-1.29
2022-11-20T18:13:29.088Z,-1.3
2022-11-20T18:18:12.307Z,-1.35
2022-11-20T18:22:55.344Z,-1.38
2022-11-20T18:27:38.406Z,-1.43
2022-11-20T18:32:21.747Z,-1.44
2022-11-20T18:37:05.107Z,-1.5
2022-11-20T18:41:48.337Z,-1.52
2022-11-20T18:46:31.502Z,-1.59
2022-11-20T18:51:14.704Z,-1.58
2022-11-20T18:55:57.772Z,-1.56
2022-11-20T19:05:41.532Z,-1.51
2022-11-20T19:10:24.502Z,-1.43
2022-11-20T19:15:07.572Z,-1.42
2022-11-20T19:19:50.610Z,-1.39
2022-11-20T19:24:33.619Z,-1.42
2022-11-20T19:29:16.732Z,-1.43
2022-11-20T19:33:59.844Z,-1.4
2022-11-20T19:38:47.612Z,-1.37
2022-11-20T19:43:39.614Z,-1.36
2022-11-20T19:48:22.657Z,-1.32
2022-11-20T19:53:05.694Z,-1.32
2022-11-20T19:57:48.739Z,-1.26
2022-11-20T20:02:31.701Z,-1.16
2022-11-20T20:07:14.883Z,-1.13
2022-11-20T20:16:55.136Z,-1.27
2022-11-20T20:21:38.090Z,-1.29
2022-11-20T20:26:21.330Z,-1.21
2022-11-20T20:31:04.256Z,-1.13
2022-11-20T20:35:47.245Z,-1.11
2022-11-20T20:40:30.226Z,-1.27
2022-11-20T20:45:13.264Z,-1.52
2022-11-20T20:49:56.183Z,-1.74
2022-11-20T20:54:39.151Z,-1.91
2022-11-20T20:59:22.357Z,-2.01
2022-11-20T21:04:06.496Z,-2.06
2022-11-20T21:08:49.457Z,-2.07
2022-11-20T21:13:32.484Z,-2.01
2022-11-20T21:18:15.456Z,-2.01
2022-11-20T21:22:58.465Z,-1.95
2022-11-20T21:27:41.484Z,-1.98
2022-11-20T21:32:24.476Z,-2.1
2022-11-20T21:37:07.456Z,-2.19
2022-11-20T21:41:50.491Z,-2.28
2022-11-20T21:46:33.468Z,-2.32
2022-11-20T21:51:16.468Z,-2.4
2022-11-20T21:55:59.383Z,-2.45
2022-11-20T22:00:42.320Z,-2.53
2022-11-20T22:05:25.311Z,-2.57
2022-11-20T22:10:08.260Z,-2.58
2022-11-20T22:14:59.160Z,-2.59
2022-11-20T22:19:42.073Z,-2.68
2022-11-20T22:24:25.329Z,-2.73
2022-11-20T22:29:09.264Z,-2.78
2022-11-20T22:33:52.219Z,-2.81
2022-11-20T22:38:39.220Z,-2.85
2022-11-20T22:43:22.413Z,-2.87
2022-11-20T22:48:05.347Z,-2.92
2022-11-20T22:52:48.288Z,-2.95
2022-11-20T22:57:31.250Z,-2.98
2022-11-20T23:02:14.203Z,-3.02
2022-11-20T23:06:57.135Z,-3
2022-11-20T23:11:40.113Z,-3.01
2022-11-20T23:16:23.036Z,-3.03
2022-11-20T23:21:05.995Z,-2.99
2022-11-20T23:25:48.912Z,-3.02
2022-11-20T23:30:31.847Z,-3.04
2022-11-20T23:35:14.793Z,-3.04
2022-11-20T23:39:57.783Z,-3.05
2022-11-20T23:44:40.751Z,-3.07
2022-11-20T23:49:23.679Z,-3.04
2022-11-20T23:54:06.695Z,-3.01
2022-11-20T23:58:49.611Z,-2.81
